Aviation Digital Data Service (ADDS)

Output produced by METARs form (1303 UTC 17 January 2017)
found at http://aviationweather.gov/adds/metars/
 
KTOL 171137Z 1712/1812 14006KT 1/2SM FG VV002 
     TEMPO 1712/1713 1/4SM -TSRA FG VV002CB 
     FM171300 22008KT 4SM -SHRA BR OVC003 
     FM171600 25015G24KT 5SM BR BKN007 
     FM180000 27009KT 5SM BR VCSH BKN009